createdAt,value
2018-06-25T00:00:50.533Z,6.10
2018-06-25T00:03:19.393Z,5.97
2018-06-25T00:05:48.514Z,6.47
2018-06-25T00:08:17.406Z,7.03
2018-06-25T00:10:46.463Z,6.70
2018-06-25T00:13:15.508Z,5.50
2018-06-25T00:15:44.373Z,6.03
2018-06-25T00:18:15.818Z,4.43
2018-06-25T00:20:45.118Z,4.63
2018-06-25T00:23:13.929Z,3.60
2018-06-25T00:25:43.262Z,3.23
2018-06-25T00:28:12.290Z,3.40
2018-06-25T00:30:41.379Z,3.63
2018-06-25T00:33:11.808Z,3.40
2018-06-25T00:35:40.722Z,3.60
2018-06-25T00:38:10.101Z,3.93
2018-06-25T00:40:39.736Z,3.77
2018-06-25T00:43:08.660Z,4.20
2018-06-25T00:45:37.540Z,3.83
2018-06-25T00:48:06.613Z,3.73
2018-06-25T00:50:35.677Z,3.77
2018-06-25T00:53:04.622Z,4.00
2018-06-25T00:55:33.660Z,3.57
2018-06-25T00:58:02.672Z,3.33
2018-06-25T01:00:31.869Z,3.50
2018-06-25T01:03:00.696Z,3.33
2018-06-25T01:05:29.566Z,3.37
2018-06-25T01:07:59.953Z,3.30
2018-06-25T01:10:29.146Z,3.03
2018-06-25T01:12:58.104Z,3.30
2018-06-25T01:15:26.974Z,3.30
2018-06-25T01:17:57.117Z,2.80
2018-06-25T01:20:26.657Z,2.83
2018-06-25T01:22:55.517Z,3.30
2018-06-25T01:25:24.480Z,2.90
2018-06-25T01:27:53.378Z,3.30
2018-06-25T01:30:22.341Z,2.87
2018-06-25T01:32:51.247Z,2.97
2018-06-25T01:35:20.215Z,2.87
2018-06-25T01:37:49.067Z,3.13
2018-06-25T01:40:17.965Z,3.17
2018-06-25T01:42:47.013Z,2.57
2018-06-25T01:45:15.930Z,2.80
2018-06-25T01:47:44.845Z,3.10
2018-06-25T01:50:14.351Z,3.00
2018-06-25T01:52:43.289Z,3.30
2018-06-25T01:55:12.193Z,3.30
2018-06-25T01:57:41.121Z,2.93
2018-06-25T02:00:09.677Z,3.60
2018-06-25T02:02:39.066Z,3.50
2018-06-25T02:05:08.050Z,3.13
2018-06-25T02:07:36.948Z,3.20
2018-06-25T02:10:05.924Z,2.80
2018-06-25T02:12:34.829Z,3.00
2018-06-25T02:15:03.988Z,3.20
2018-06-25T02:17:32.940Z,2.90
2018-06-25T02:20:01.984Z,2.73
2018-06-25T02:22:30.445Z,2.80
2018-06-25T02:24:59.394Z,3.20
2018-06-25T02:27:28.374Z,2.90
2018-06-25T02:29:57.381Z,2.90
2018-06-25T02:32:26.289Z,2.97
2018-06-25T02:34:55.187Z,3.20
2018-06-25T02:37:24.596Z,3.23
2018-06-25T02:39:53.511Z,3.63
2018-06-25T02:42:22.505Z,3.87
2018-06-25T02:44:51.371Z,4.77
2018-06-25T02:47:20.768Z,4.87
2018-06-25T02:49:49.627Z,5.13
2018-06-25T02:52:18.594Z,4.80
2018-06-25T02:54:47.503Z,4.67
2018-06-25T02:57:16.778Z,5.00
2018-06-25T02:59:45.791Z,4.73
2018-06-25T03:02:14.706Z,4.47
2018-06-25T03:04:43.596Z,5.00
2018-06-25T03:07:12.816Z,4.77
2018-06-25T03:09:41.730Z,4.07
2018-06-25T03:12:10.649Z,4.00
2018-06-25T03:14:39.599Z,3.90
2018-06-25T03:17:08.023Z,4.10
2018-06-25T03:19:36.885Z,3.93
2018-06-25T03:22:05.739Z,3.70
2018-06-25T03:24:34.710Z,3.03
2018-06-25T03:27:03.550Z,3.77
2018-06-25T03:29:32.410Z,3.30
2018-06-25T03:32:01.296Z,3.70
2018-06-25T03:34:30.293Z,3.80
2018-06-25T03:36:59.145Z,3.57
2018-06-25T03:39:28.824Z,4.03
2018-06-25T03:41:57.783Z,4.13
2018-06-25T03:44:27.185Z,4.13
2018-06-25T03:46:56.077Z,3.90
2018-06-25T03:49:26.046Z,4.37
2018-06-25T03:51:55.941Z,4.30
2018-06-25T03:54:24.883Z,3.57
2018-06-25T03:56:53.789Z,3.40
2018-06-25T03:59:22.660Z,3.17
2018-06-25T04:01:51.554Z,3.00
2018-06-25T04:04:20.674Z,3.07
2018-06-25T04:06:49.593Z,3.00
2018-06-25T04:09:18.461Z,3.10
2018-06-25T04:11:47.341Z,3.40
2018-06-25T04:14:16.206Z,3.83
2018-06-25T04:16:45.080Z,4.07
2018-06-25T04:19:13.921Z,4.80
2018-06-25T04:21:42.798Z,4.63
2018-06-25T04:24:11.669Z,4.60
2018-06-25T04:26:40.494Z,5.30
2018-06-25T04:29:09.364Z,4.40
2018-06-25T04:31:38.277Z,4.93
2018-06-25T04:34:07.193Z,4.80
2018-06-25T04:36:36.078Z,4.47
2018-06-25T04:39:07.869Z,4.47
2018-06-25T04:41:36.781Z,4.20
2018-06-25T04:44:05.746Z,3.77
2018-06-25T04:46:34.823Z,4.00
2018-06-25T04:49:04.121Z,4.20
2018-06-25T04:51:32.997Z,4.20
2018-06-25T04:54:01.913Z,4.50
2018-06-25T04:56:30.827Z,3.90
2018-06-25T04:58:59.726Z,4.00
2018-06-25T05:01:28.816Z,4.00
2018-06-25T05:03:57.757Z,3.90
2018-06-25T05:06:26.636Z,3.87
2018-06-25T05:08:55.598Z,4.10
2018-06-25T05:11:24.781Z,3.77
2018-06-25T05:13:54.488Z,3.80
2018-06-25T05:16:23.387Z,3.90
2018-06-25T05:18:51.844Z,4.27
2018-06-25T05:21:21.317Z,4.03
2018-06-25T05:23:50.209Z,3.83
2018-06-25T05:26:19.493Z,4.03
2018-06-25T05:28:48.836Z,4.50
2018-06-25T05:31:17.785Z,4.53
2018-06-25T05:33:47.060Z,4.93
2018-06-25T05:36:16.638Z,4.63
2018-06-25T05:38:45.609Z,4.93
2018-06-25T05:41:14.536Z,5.00
2018-06-25T05:43:43.370Z,4.83
2018-06-25T05:46:12.389Z,4.70
2018-06-25T05:48:42.352Z,4.60
2018-06-25T05:51:11.875Z,4.70
2018-06-25T05:53:40.800Z,4.87
2018-06-25T05:56:10.167Z,4.73
2018-06-25T05:58:43.260Z,5.10
2018-06-25T06:01:15.339Z,4.83
2018-06-25T06:03:44.326Z,4.37
2018-06-25T06:06:13.889Z,4.57
2018-06-25T06:08:43.336Z,4.93
2018-06-25T06:11:12.873Z,4.90
2018-06-25T06:13:42.729Z,4.30
2018-06-25T06:16:11.649Z,4.50
2018-06-25T06:18:41.038Z,4.73
2018-06-25T06:21:10.100Z,4.70
2018-06-25T06:23:39.268Z,4.60
2018-06-25T06:26:08.501Z,4.50
2018-06-25T06:28:37.770Z,4.10
2018-06-25T06:33:48.204Z,4.80
2018-06-25T06:36:23.774Z,4.53
2018-06-25T06:38:53.035Z,4.90
2018-06-25T06:41:22.133Z,4.40
2018-06-25T06:43:51.177Z,4.87
2018-06-25T06:46:21.693Z,4.50
2018-06-25T06:48:50.836Z,4.93
2018-06-25T06:51:19.771Z,5.10
2018-06-25T06:53:48.769Z,4.50
2018-06-25T06:56:20.014Z,5.10
2018-06-25T06:58:49.458Z,4.77
2018-06-25T07:01:20.975Z,5.13
2018-06-25T07:03:54.482Z,5.63
2018-06-25T07:06:25.349Z,4.83
2018-06-25T07:08:54.697Z,4.60
2018-06-25T07:11:24.368Z,5.17
2018-06-25T07:13:53.290Z,5.83
2018-06-25T07:16:21.840Z,4.97
2018-06-25T07:18:50.921Z,5.00
2018-06-25T07:21:22.344Z,4.90
2018-06-25T07:23:52.614Z,4.10
2018-06-25T07:26:24.654Z,3.97
2018-06-25T07:28:54.546Z,4.30
2018-06-25T07:31:23.537Z,4.40
2018-06-25T07:33:52.505Z,4.57
2018-06-25T07:36:21.489Z,4.63
2018-06-25T07:38:50.564Z,4.47
2018-06-25T07:41:19.497Z,4.73
2018-06-25T07:43:48.430Z,4.43
2018-06-25T07:46:17.372Z,3.50
2018-06-25T07:48:46.327Z,3.93
2018-06-25T07:51:15.316Z,4.60
2018-06-25T07:53:44.266Z,4.40
2018-06-25T07:56:13.195Z,4.33
2018-06-25T07:58:42.202Z,4.13
2018-06-25T08:01:11.121Z,4.00
2018-06-25T08:03:40.675Z,4.10
2018-06-25T08:06:09.628Z,4.10
2018-06-25T08:08:39.052Z,4.07
2018-06-25T08:11:08.053Z,4.70
2018-06-25T08:13:37.196Z,4.70
2018-06-25T08:16:07.145Z,4.20
2018-06-25T08:18:36.133Z,3.80
2018-06-25T08:21:05.029Z,4.07
2018-06-25T08:23:33.884Z,4.03
2018-06-25T08:26:02.817Z,3.40
2018-06-25T08:28:31.673Z,3.70
2018-06-25T08:31:01.057Z,3.73
2018-06-25T08:33:30.046Z,3.47
2018-06-25T08:36:00.369Z,3.47
2018-06-25T08:38:29.281Z,3.67
2018-06-25T08:40:58.813Z,2.77
2018-06-25T08:43:27.797Z,3.93
2018-06-25T08:45:57.525Z,3.60
2018-06-25T08:48:26.401Z,3.27
2018-06-25T08:50:56.564Z,3.37
2018-06-25T08:53:25.714Z,3.40
2018-06-25T08:55:55.200Z,3.70
2018-06-25T08:58:24.431Z,3.70
2018-06-25T09:00:53.387Z,3.30
2018-06-25T09:03:22.357Z,2.80
2018-06-25T09:05:51.203Z,2.80
2018-06-25T09:08:20.098Z,3.57
2018-06-25T09:10:49.328Z,3.60
2018-06-25T09:13:18.288Z,3.20
2018-06-25T09:15:47.186Z,3.10
2018-06-25T09:18:16.089Z,2.83
2018-06-25T09:20:44.962Z,3.10
2018-06-25T09:23:13.883Z,3.00
2018-06-25T09:25:42.794Z,3.20
2018-06-25T09:28:11.702Z,3.33
2018-06-25T09:30:41.080Z,3.00
2018-06-25T09:33:10.015Z,3.40
2018-06-25T09:35:39.578Z,2.77
2018-06-25T09:38:09.106Z,2.93
2018-06-25T09:40:38.028Z,3.37
2018-06-25T09:43:06.925Z,3.33
2018-06-25T09:45:35.868Z,3.03
2018-06-25T09:48:09.355Z,2.40
2018-06-25T09:50:39.845Z,3.30
2018-06-25T09:53:10.614Z,3.00
2018-06-25T09:55:39.650Z,2.87
2018-06-25T09:58:08.161Z,3.30
2018-06-25T10:00:42.114Z,3.40
2018-06-25T10:03:11.550Z,2.90
2018-06-25T10:05:40.436Z,3.60
2018-06-25T10:08:09.701Z,2.63
2018-06-25T10:10:38.762Z,2.70
2018-06-25T10:13:07.837Z,2.83
2018-06-25T10:15:37.331Z,2.67
2018-06-25T10:18:06.278Z,3.10
2018-06-25T10:20:37.346Z,2.43
2018-06-25T10:23:06.623Z,3.27
2018-06-25T10:25:35.492Z,3.30
2018-06-25T10:28:04.494Z,3.00
2018-06-25T10:30:33.378Z,2.70
2018-06-25T10:33:02.512Z,2.40
2018-06-25T10:35:31.433Z,2.70
2018-06-25T10:38:00.781Z,2.83
2018-06-25T10:40:30.071Z,3.03
2018-06-25T10:42:59.005Z,2.80
2018-06-25T10:45:28.408Z,2.57
2018-06-25T10:47:57.362Z,3.07
2018-06-25T10:50:26.253Z,2.93
2018-06-25T10:52:55.204Z,2.93
2018-06-25T10:55:24.081Z,2.90
2018-06-25T10:57:52.909Z,2.87
2018-06-25T11:00:21.864Z,2.80
2018-06-25T11:02:50.779Z,2.60
2018-06-25T11:05:19.657Z,2.50
2018-06-25T11:07:48.685Z,2.60
2018-06-25T11:10:17.596Z,2.73
2018-06-25T11:12:47.300Z,2.70
2018-06-25T11:15:17.873Z,2.50
2018-06-25T11:17:46.813Z,2.53
2018-06-25T11:20:15.763Z,2.80
2018-06-25T11:22:44.712Z,2.87
2018-06-25T11:25:13.729Z,2.63
2018-06-25T11:27:44.675Z,2.80
2018-06-25T11:30:16.645Z,2.80
2018-06-25T11:32:45.537Z,2.77
2018-06-25T11:35:14.513Z,2.67
2018-06-25T11:37:43.432Z,2.60
2018-06-25T11:40:12.366Z,2.20
2018-06-25T11:42:41.745Z,2.80
2018-06-25T11:45:11.013Z,2.60
2018-06-25T11:47:39.467Z,2.57
2018-06-25T11:50:08.634Z,2.33
2018-06-25T11:52:37.751Z,2.40
2018-06-25T11:55:06.823Z,2.80
2018-06-25T11:57:35.957Z,2.77
2018-06-25T12:00:05.687Z,2.87
2018-06-25T12:02:35.640Z,3.13
2018-06-25T12:05:04.339Z,2.50
2018-06-25T12:07:34.285Z,2.80
2018-06-25T12:10:04.065Z,3.07
2018-06-25T12:12:32.853Z,2.63
2018-06-25T12:15:01.708Z,2.40
2018-06-25T12:17:30.734Z,2.58
2018-06-25T12:19:59.672Z,2.58
2018-06-25T12:22:28.606Z,2.65
2018-06-25T12:24:57.672Z,3.35
2018-06-25T12:27:26.530Z,2.77
2018-06-25T12:29:58.017Z,2.83
2018-06-25T12:32:26.848Z,2.50
2018-06-25T12:34:55.814Z,2.85
2018-06-25T12:37:24.670Z,2.77
2018-06-25T12:39:53.689Z,2.70
2018-06-25T12:42:23.569Z,2.95
2018-06-25T12:44:52.887Z,2.75
2018-06-25T12:47:21.798Z,2.90
2018-06-25T12:49:50.727Z,2.87
2018-06-25T12:52:19.695Z,3.10
2018-06-25T12:54:48.834Z,2.83
2018-06-25T12:57:17.717Z,2.83
2018-06-25T12:59:46.827Z,3.08
2018-06-25T13:02:16.726Z,2.85
2018-06-25T13:04:45.608Z,2.90
2018-06-25T13:07:14.468Z,3.22
2018-06-25T13:09:43.293Z,2.67
2018-06-25T13:12:14.352Z,2.70
2018-06-25T13:14:43.650Z,2.52
2018-06-25T13:17:12.798Z,2.70
2018-06-25T13:19:41.688Z,2.80
2018-06-25T13:22:10.590Z,2.60
2018-06-25T13:24:39.472Z,2.92
2018-06-25T13:27:08.275Z,2.20
2018-06-25T13:29:37.142Z,2.37
2018-06-25T13:32:06.150Z,2.50
2018-06-25T13:34:35.399Z,1.92
2018-06-25T13:37:04.365Z,2.40
2018-06-25T13:39:33.249Z,2.90
2018-06-25T13:42:02.149Z,2.70
2018-06-25T13:44:31.141Z,2.62
2018-06-25T13:47:00.054Z,2.85
2018-06-25T13:49:28.916Z,2.77
2018-06-25T13:51:58.338Z,2.72
2018-06-25T13:54:27.679Z,2.58
2018-06-25T13:56:56.647Z,2.77
2018-06-25T13:59:25.515Z,2.85
2018-06-25T14:01:54.636Z,3.33
2018-06-25T14:04:24.223Z,3.10
2018-06-25T14:06:54.649Z,2.80
2018-06-25T14:09:23.564Z,2.60
2018-06-25T14:11:52.562Z,3.00
2018-06-25T14:14:22.111Z,2.55
2018-06-25T14:16:52.169Z,2.50
2018-06-25T14:19:21.069Z,2.65
2018-06-25T14:21:50.025Z,2.50
2018-06-25T14:24:24.365Z,2.70
2018-06-25T14:26:58.096Z,2.75
2018-06-25T14:29:32.802Z,2.22
2018-06-25T14:32:07.009Z,2.70
2018-06-25T14:34:36.151Z,2.67
2018-06-25T14:37:05.029Z,2.77
2018-06-25T14:39:34.548Z,3.00
2018-06-25T14:42:03.454Z,2.92
2018-06-25T14:44:32.405Z,2.90
2018-06-25T14:47:01.302Z,3.00
2018-06-25T14:49:30.217Z,2.80
2018-06-25T14:51:59.193Z,3.08
2018-06-25T14:54:27.863Z,2.83
2018-06-25T14:56:56.869Z,2.67
2018-06-25T14:59:25.798Z,2.47
2018-06-25T15:01:54.682Z,2.37
2018-06-25T15:04:23.576Z,2.80
2018-06-25T15:06:52.654Z,2.65
2018-06-25T15:09:21.503Z,2.20
2018-06-25T15:11:50.609Z,2.80
2018-06-25T15:14:19.938Z,3.00
2018-06-25T15:16:48.759Z,2.60
2018-06-25T15:19:17.697Z,2.77
2018-06-25T15:21:47.317Z,2.60
2018-06-25T15:24:16.139Z,2.67
2018-06-25T15:26:44.976Z,2.47
2018-06-25T15:29:13.877Z,2.50
2018-06-25T15:31:42.739Z,2.70
2018-06-25T15:34:11.607Z,2.30
2018-06-25T15:36:40.523Z,2.10
2018-06-25T15:39:10.631Z,2.60
2018-06-25T15:41:40.205Z,2.70
2018-06-25T15:44:09.105Z,2.33
2018-06-25T15:46:38.619Z,2.22
2018-06-25T15:49:07.584Z,2.30
2018-06-25T15:51:36.532Z,2.40
2018-06-25T15:54:05.445Z,2.60
2018-06-25T15:56:34.349Z,2.00
2018-06-25T15:59:03.375Z,2.27
2018-06-25T16:01:38.521Z,2.17
2018-06-25T16:04:07.618Z,2.10
2018-06-25T16:06:36.500Z,2.62
2018-06-25T16:09:07.845Z,2.00
2018-06-25T16:11:37.510Z,2.20
2018-06-25T16:14:06.733Z,2.00
2018-06-25T16:16:35.603Z,1.92
2018-06-25T16:19:04.613Z,2.33
2018-06-25T16:21:33.670Z,2.00
2018-06-25T16:24:04.014Z,1.98
2018-06-25T16:26:32.976Z,2.37
2018-06-25T16:29:02.522Z,2.02
2018-06-25T16:31:31.389Z,2.50
2018-06-25T16:34:00.568Z,2.45
2018-06-25T16:36:29.484Z,2.30
2018-06-25T16:38:58.431Z,2.17
2018-06-25T16:41:27.391Z,2.52
2018-06-25T16:43:56.432Z,2.50
2018-06-25T16:46:25.351Z,2.30
2018-06-25T16:48:54.187Z,2.40
2018-06-25T16:51:23.816Z,2.30
2018-06-25T16:53:52.213Z,1.98
2018-06-25T16:56:21.095Z,2.20
2018-06-25T16:58:49.952Z,2.33
2018-06-25T17:01:18.881Z,2.50
2018-06-25T17:03:47.321Z,2.30
2018-06-25T17:06:16.604Z,2.20
2018-06-25T17:08:46.401Z,2.40
2018-06-25T17:11:16.139Z,2.47
2018-06-25T17:13:45.033Z,2.08
2018-06-25T17:16:14.038Z,2.52
2018-06-25T17:18:43.781Z,2.20
2018-06-25T17:21:14.261Z,2.45
2018-06-25T17:23:43.910Z,2.25
2018-06-25T17:26:12.981Z,2.30
2018-06-25T17:28:41.941Z,2.35
2018-06-25T17:31:12.249Z,2.30
2018-06-25T17:33:42.910Z,2.40
2018-06-25T17:36:12.441Z,2.10
2018-06-25T17:38:41.714Z,2.45
2018-06-25T17:41:10.686Z,2.20
2018-06-25T17:43:41.142Z,2.40
2018-06-25T17:46:10.212Z,2.40
2018-06-25T17:48:42.128Z,2.40
2018-06-25T17:51:11.606Z,2.50
2018-06-25T17:53:40.740Z,2.33
2018-06-25T17:56:10.161Z,2.15
2018-06-25T17:58:39.199Z,2.70
2018-06-25T18:01:09.113Z,2.77
2018-06-25T18:03:38.084Z,2.62
2018-06-25T18:06:07.179Z,2.17
2018-06-25T18:08:36.141Z,1.98
2018-06-25T18:11:05.301Z,2.40
2018-06-25T18:13:35.616Z,2.65
2018-06-25T18:16:06.453Z,2.25
2018-06-25T18:18:36.164Z,2.40
2018-06-25T18:21:06.360Z,2.12
2018-06-25T18:23:36.383Z,2.47
2018-06-25T18:26:06.587Z,2.05
2018-06-25T18:28:36.110Z,2.33
2018-06-25T18:31:05.781Z,2.15
2018-06-25T18:33:37.487Z,2.50
2018-06-25T18:36:07.449Z,2.35
2018-06-25T18:38:36.986Z,2.35
2018-06-25T18:41:08.316Z,2.05
2018-06-25T18:43:38.492Z,2.40
2018-06-25T18:46:08.227Z,2.55
2018-06-25T18:48:38.347Z,2.25
2018-06-25T18:51:07.650Z,2.72
2018-06-25T18:53:37.572Z,2.67
2018-06-25T18:56:08.228Z,2.58
2018-06-25T18:58:46.594Z,2.20
2018-06-25T19:01:16.257Z,2.72
2018-06-25T19:03:45.349Z,2.10
2018-06-25T19:06:14.441Z,2.20
2018-06-25T19:08:43.383Z,2.52
2018-06-25T19:11:12.687Z,2.33
2018-06-25T19:13:42.177Z,2.87
2018-06-25T19:16:12.690Z,3.72
2018-06-25T19:18:41.582Z,3.65
2018-06-25T19:21:14.910Z,2.62
2018-06-25T19:23:43.868Z,2.80
2018-06-25T19:26:12.790Z,2.72
2018-06-25T19:28:41.719Z,2.60
2018-06-25T19:31:11.540Z,2.92
2018-06-25T19:33:40.622Z,3.22
2018-06-25T19:36:10.027Z,3.37
2018-06-25T19:38:39.956Z,4.30
2018-06-25T19:41:08.898Z,4.00
2018-06-25T19:43:37.846Z,4.17
2018-06-25T19:46:06.892Z,4.03
2018-06-25T19:48:35.418Z,3.15
2018-06-25T19:51:05.601Z,4.20
2018-06-25T19:53:35.160Z,2.80
2018-06-25T19:56:04.054Z,2.58
2018-06-25T19:58:34.269Z,2.80
2018-06-25T20:01:04.148Z,2.90
2018-06-25T20:03:33.005Z,2.80
2018-06-25T20:06:02.039Z,2.80
2018-06-25T20:08:31.009Z,2.75
2018-06-25T20:11:00.849Z,2.92
2018-06-25T20:13:29.852Z,2.87
2018-06-25T20:15:58.868Z,2.95
2018-06-25T20:18:28.158Z,2.55
2018-06-25T20:20:57.697Z,2.70
2018-06-25T20:23:26.767Z,2.87
2018-06-25T20:25:56.340Z,2.80
2018-06-25T20:28:25.296Z,2.90
2018-06-25T20:30:54.936Z,2.87
2018-06-25T20:33:27.816Z,2.90
2018-06-25T20:35:56.989Z,2.73
2018-06-25T20:38:27.278Z,2.90
2018-06-25T20:40:56.335Z,2.90
2018-06-25T20:43:25.678Z,2.83
2018-06-25T20:45:54.715Z,3.10
2018-06-25T20:48:23.700Z,2.83
2018-06-25T20:50:52.703Z,3.13
2018-06-25T20:53:21.748Z,2.50
2018-06-25T20:55:50.733Z,2.83
2018-06-25T20:58:19.665Z,2.60
2018-06-25T21:00:49.093Z,2.70
2018-06-25T21:03:18.652Z,3.00
2018-06-25T21:05:48.098Z,2.90
2018-06-25T21:08:17.034Z,2.83
2018-06-25T21:10:46.064Z,2.67
2018-06-25T21:13:15.084Z,3.10
2018-06-25T21:15:44.213Z,3.23
2018-06-25T21:18:13.758Z,3.87
2018-06-25T21:20:42.823Z,4.20
2018-06-25T21:23:11.928Z,3.00
2018-06-25T21:25:42.094Z,3.20
2018-06-25T21:28:11.739Z,2.90
2018-06-25T21:30:41.773Z,2.70
2018-06-25T21:33:11.012Z,2.70
2018-06-25T21:35:41.173Z,3.33
2018-06-25T21:38:11.098Z,3.20
2018-06-25T21:40:40.131Z,3.20
2018-06-25T21:43:09.234Z,3.20
2018-06-25T21:45:38.970Z,3.23
2018-06-25T21:48:09.170Z,2.93
2018-06-25T21:50:39.151Z,2.90
2018-06-25T21:53:11.013Z,3.23
2018-06-25T21:55:40.270Z,3.30
2018-06-25T21:58:09.393Z,2.80
2018-06-25T22:00:50.228Z,3.30
2018-06-25T22:03:19.308Z,3.40
2018-06-25T22:05:48.895Z,2.90
2018-06-25T22:08:17.972Z,2.77
2018-06-25T22:10:47.122Z,2.90
2018-06-25T22:13:16.073Z,3.10
2018-06-25T22:15:45.181Z,3.37
2018-06-25T22:18:14.547Z,2.90
2018-06-25T22:20:43.689Z,3.40
2018-06-25T22:23:18.876Z,3.20
2018-06-25T22:25:47.922Z,3.33
2018-06-25T22:28:16.960Z,3.37
2018-06-25T22:30:46.016Z,3.20
2018-06-25T22:33:15.935Z,3.03
2018-06-25T22:35:44.895Z,3.37
2018-06-25T22:38:14.021Z,3.23
2018-06-25T22:40:42.516Z,3.67
2018-06-25T22:43:11.457Z,3.03
2018-06-25T22:45:43.118Z,3.43
2018-06-25T22:48:23.869Z,3.57
2018-06-25T22:50:52.937Z,3.20
2018-06-25T22:53:21.978Z,3.20
2018-06-25T22:55:59.557Z,3.00
2018-06-25T22:58:28.964Z,3.60
2018-06-25T23:00:58.424Z,3.53
2018-06-25T23:03:27.091Z,2.90
2018-06-25T23:05:56.154Z,2.93
2018-06-25T23:08:26.795Z,3.10
2018-06-25T23:10:57.647Z,3.13
2018-06-25T23:13:28.370Z,3.20
2018-06-25T23:15:59.810Z,3.37
2018-06-25T23:18:29.278Z,3.30
2018-06-25T23:20:59.327Z,2.97
2018-06-25T23:23:29.280Z,3.00
2018-06-25T23:26:00.333Z,3.50
2018-06-25T23:28:32.068Z,3.63
2018-06-25T23:31:01.095Z,3.60
2018-06-25T23:33:30.105Z,3.40
2018-06-25T23:36:00.814Z,3.63
2018-06-25T23:38:29.918Z,3.83
2018-06-25T23:40:58.916Z,3.90
2018-06-25T23:43:28.137Z,3.97
2018-06-25T23:45:58.766Z,4.30
2018-06-25T23:48:28.573Z,4.13
2018-06-25T23:50:57.622Z,3.73
2018-06-25T23:53:27.237Z,4.03
2018-06-25T23:55:56.298Z,3.80
2018-06-25T23:58:25.205Z,3.90
